createdAt,value
2022-10-06T00:01:05.230Z,6.70
2022-10-06T00:03:33.701Z,7.55
2022-10-06T00:06:04.518Z,7.00
2022-10-06T00:08:33.787Z,6.30
2022-10-06T00:11:03.039Z,6.13
2022-10-06T00:13:31.822Z,8.32
2022-10-06T00:16:00.587Z,7.10
2022-10-06T00:18:31.369Z,6.47
2022-10-06T00:21:04.357Z,8.73
2022-10-06T00:23:33.135Z,6.90
2022-10-06T00:26:28.847Z,6.75
2022-10-06T00:28:59.762Z,7.30
2022-10-06T00:31:28.419Z,7.77
2022-10-06T00:33:58.017Z,6.53
2022-10-06T00:36:28.368Z,10.40
2022-10-06T00:38:57.286Z,9.50
2022-10-06T00:41:25.979Z,6.75
2022-10-06T00:43:57.038Z,8.70
2022-10-06T00:46:32.215Z,7.93
2022-10-06T00:49:07.795Z,7.43
2022-10-06T00:51:40.641Z,7.18
2022-10-06T00:54:09.550Z,8.75
2022-10-06T00:56:40.281Z,7.20
2022-10-06T00:59:12.171Z,6.63
2022-10-06T01:01:42.634Z,6.07
2022-10-06T01:04:15.355Z,6.15
2022-10-06T01:06:49.365Z,5.85
2022-10-06T01:09:19.696Z,5.67
2022-10-06T01:11:49.993Z,7.10
2022-10-06T01:14:19.861Z,5.88
2022-10-06T01:16:54.704Z,7.65
2022-10-06T01:19:38.339Z,5.90
2022-10-06T01:22:10.470Z,6.83
2022-10-06T01:24:40.906Z,5.32
2022-10-06T01:27:11.399Z,5.22
2022-10-06T01:29:40.194Z,5.45
2022-10-06T01:32:09.200Z,7.25
2022-10-06T01:34:38.528Z,7.90
2022-10-06T01:37:06.885Z,6.60
2022-10-06T01:39:35.978Z,7.63
2022-10-06T01:42:06.445Z,8.05
2022-10-06T01:44:35.090Z,5.72
2022-10-06T01:47:05.993Z,7.40
2022-10-06T01:49:34.501Z,6.03
2022-10-06T01:52:03.296Z,5.20
2022-10-06T01:54:31.802Z,6.30
2022-10-06T01:57:00.459Z,5.88
2022-10-06T01:59:30.521Z,5.43
2022-10-06T02:02:01.419Z,5.75
2022-10-06T02:04:30.040Z,6.30
2022-10-06T02:06:59.029Z,5.63
2022-10-06T02:09:28.365Z,13.50
2022-10-06T02:11:57.408Z,6.03
2022-10-06T02:14:25.954Z,6.13
2022-10-06T02:16:56.835Z,5.90
2022-10-06T02:19:25.849Z,5.70
2022-10-06T02:21:54.380Z,5.90
2022-10-06T02:24:22.880Z,6.10
2022-10-06T02:26:51.346Z,5.72
2022-10-06T02:29:21.508Z,6.10
2022-10-06T02:31:50.591Z,6.70
2022-10-06T02:34:20.353Z,6.68
2022-10-06T02:36:49.273Z,8.00
2022-10-06T02:39:18.166Z,9.30
2022-10-06T02:41:47.785Z,6.50
2022-10-06T02:44:16.335Z,6.38
2022-10-06T02:46:46.219Z,8.45
2022-10-06T02:49:14.959Z,5.40
2022-10-06T02:51:44.630Z,7.80
2022-10-06T02:54:16.201Z,4.97
2022-10-06T02:56:45.525Z,5.57
2022-10-06T02:59:15.540Z,6.40
2022-10-06T03:01:45.425Z,6.43
2022-10-06T03:04:17.989Z,8.90
2022-10-06T03:06:49.786Z,7.55
2022-10-06T03:09:25.158Z,4.93
2022-10-06T03:11:54.533Z,5.45
2022-10-06T03:14:35.766Z,6.10
2022-10-06T03:17:05.322Z,6.13
2022-10-06T03:19:33.758Z,7.13
2022-10-06T03:22:04.527Z,5.15
2022-10-06T03:24:43.125Z,5.90
2022-10-06T03:27:11.747Z,7.97
2022-10-06T03:29:40.530Z,6.57
2022-10-06T03:32:09.243Z,6.03
2022-10-06T03:34:38.722Z,4.90
2022-10-06T03:37:11.611Z,6.95
2022-10-06T03:39:40.691Z,5.83
2022-10-06T03:42:09.544Z,5.38
2022-10-06T03:44:38.066Z,6.53
2022-10-06T03:47:06.918Z,6.82
2022-10-06T03:49:36.118Z,5.05
2022-10-06T03:52:04.567Z,6.10
2022-10-06T03:54:38.728Z,6.38
2022-10-06T03:57:07.339Z,8.73
2022-10-06T03:59:35.978Z,6.63
2022-10-06T04:02:06.444Z,7.13
2022-10-06T04:04:39.189Z,7.77
2022-10-06T04:07:11.014Z,6.75
2022-10-06T04:09:41.572Z,6.30
2022-10-06T04:12:12.510Z,6.88
2022-10-06T04:14:43.293Z,6.25
2022-10-06T04:17:12.512Z,10.37
2022-10-06T04:19:42.684Z,5.43
2022-10-06T04:22:11.231Z,7.97
2022-10-06T04:24:39.778Z,5.22
2022-10-06T04:27:27.135Z,7.15
2022-10-06T04:30:02.339Z,6.23
2022-10-06T04:32:32.410Z,6.25
2022-10-06T04:35:00.983Z,7.80
2022-10-06T04:37:29.594Z,6.35
2022-10-06T04:39:59.323Z,9.68
2022-10-06T04:42:34.715Z,8.77
2022-10-06T04:45:05.083Z,8.70
2022-10-06T04:47:34.067Z,9.30
2022-10-06T04:50:03.086Z,6.20
2022-10-06T04:52:31.923Z,7.10
2022-10-06T04:55:05.013Z,6.47
2022-10-06T04:57:37.685Z,8.80
2022-10-06T05:00:30.782Z,7.18
2022-10-06T05:03:05.291Z,8.95
2022-10-06T05:05:33.914Z,8.05
2022-10-06T05:08:12.682Z,6.13
2022-10-06T05:10:42.207Z,7.70
2022-10-06T05:13:26.902Z,6.20
2022-10-06T05:15:59.310Z,7.88
2022-10-06T05:18:31.232Z,7.22
2022-10-06T05:23:57.367Z,6.72
2022-10-06T05:26:33.939Z,8.20
2022-10-06T05:29:05.603Z,7.80
2022-10-06T05:31:50.168Z,6.43
2022-10-06T05:34:22.621Z,6.60
2022-10-06T05:36:53.933Z,6.50
2022-10-06T05:39:22.761Z,7.93
2022-10-06T05:41:55.854Z,8.73
2022-10-06T05:44:26.682Z,8.07
2022-10-06T05:47:08.255Z,7.47
2022-10-06T05:49:37.052Z,7.45
2022-10-06T05:52:07.043Z,7.40
2022-10-06T05:54:38.659Z,6.50
2022-10-06T05:57:22.566Z,8.20
2022-10-06T05:59:52.715Z,7.63
2022-10-06T06:02:25.089Z,7.43
2022-10-06T06:04:55.853Z,7.07
2022-10-06T06:07:30.046Z,9.50
2022-10-06T06:10:01.546Z,8.93
2022-10-06T06:12:30.649Z,8.87
2022-10-06T06:15:57.619Z,8.57
2022-10-06T06:18:29.754Z,7.30
2022-10-06T06:20:59.390Z,9.23
2022-10-06T06:23:33.699Z,11.65
2022-10-06T06:26:08.572Z,8.33
2022-10-06T06:28:45.520Z,7.80
2022-10-06T06:31:20.687Z,7.15
2022-10-06T06:33:59.324Z,7.32
2022-10-06T06:36:47.382Z,11.25
2022-10-06T06:39:22.693Z,8.20
2022-10-06T06:41:56.545Z,6.78
2022-10-06T06:44:51.293Z,6.97
2022-10-06T06:47:27.287Z,7.10
2022-10-06T06:49:58.887Z,8.45
2022-10-06T06:52:28.882Z,9.27
2022-10-06T06:54:58.309Z,7.63
2022-10-06T06:57:32.145Z,18.20
2022-10-06T07:00:07.669Z,10.65
2022-10-06T07:02:38.844Z,8.10
2022-10-06T07:05:09.340Z,12.73
2022-10-06T07:07:39.652Z,8.77
2022-10-06T07:10:09.799Z,18.50
2022-10-06T07:12:44.318Z,8.05
2022-10-06T07:15:30.410Z,7.60
2022-10-06T07:18:21.135Z,7.20
2022-10-06T07:21:07.248Z,12.30
2022-10-06T07:23:52.529Z,7.53
2022-10-06T07:26:22.065Z,7.72
2022-10-06T07:28:52.883Z,10.77
2022-10-06T07:31:21.541Z,11.03
2022-10-06T07:33:52.515Z,7.38
2022-10-06T07:36:22.532Z,5.88
2022-10-06T07:38:50.710Z,6.32
2022-10-06T07:41:19.963Z,5.72
2022-10-06T07:44:05.795Z,10.73
2022-10-06T07:46:35.836Z,6.72
2022-10-06T07:49:08.819Z,10.70
2022-10-06T07:51:37.810Z,10.02
2022-10-06T07:54:06.973Z,9.85
2022-10-06T07:56:55.154Z,5.97
2022-10-06T07:59:23.525Z,7.22
2022-10-06T08:01:52.931Z,7.07
2022-10-06T08:04:22.396Z,7.32
2022-10-06T08:06:50.507Z,7.85
2022-10-06T08:09:18.608Z,9.43
2022-10-06T08:11:48.895Z,15.60
2022-10-06T08:14:17.176Z,5.80
2022-10-06T08:16:46.065Z,6.15
2022-10-06T08:19:14.691Z,9.75
2022-10-06T08:21:44.609Z,8.37
2022-10-06T08:24:13.229Z,6.38
2022-10-06T08:26:43.967Z,6.82
2022-10-06T08:29:12.471Z,8.70
2022-10-06T08:31:40.734Z,9.38
2022-10-06T08:34:12.142Z,6.77
2022-10-06T08:36:48.224Z,9.25
2022-10-06T08:39:31.931Z,8.00
2022-10-06T08:42:00.408Z,7.95
2022-10-06T08:44:35.145Z,6.30
2022-10-06T08:47:07.783Z,10.07
2022-10-06T08:49:40.366Z,7.78
2022-10-06T08:52:20.498Z,11.93
2022-10-06T08:54:58.989Z,6.28
2022-10-06T08:57:37.350Z,12.57
2022-10-06T09:00:12.079Z,7.30
2022-10-06T09:02:45.639Z,6.32
2022-10-06T09:05:19.338Z,7.68
2022-10-06T09:07:59.970Z,7.80
2022-10-06T09:10:44.436Z,7.18
2022-10-06T09:13:21.746Z,7.47
2022-10-06T09:15:55.118Z,7.35
2022-10-06T09:18:49.357Z,12.70
2022-10-06T09:21:21.672Z,8.15
2022-10-06T09:23:54.149Z,9.88
2022-10-06T09:26:28.554Z,9.17
2022-10-06T09:28:58.299Z,8.43
2022-10-06T09:31:28.473Z,12.43
2022-10-06T09:34:01.773Z,10.25
2022-10-06T09:36:30.472Z,8.23
2022-10-06T09:39:00.578Z,8.00
2022-10-06T09:41:32.911Z,9.45
2022-10-06T09:44:04.350Z,6.88
2022-10-06T09:46:35.179Z,7.40
2022-10-06T09:49:19.449Z,8.80
2022-10-06T09:52:05.329Z,7.80
2022-10-06T09:54:35.098Z,10.20
2022-10-06T09:57:16.943Z,7.63
2022-10-06T09:59:46.809Z,7.63
2022-10-06T10:02:36.946Z,7.60
2022-10-06T10:05:09.269Z,9.43
2022-10-06T10:07:37.956Z,9.55
2022-10-06T10:10:21.717Z,6.95
2022-10-06T10:12:55.812Z,8.77
2022-10-06T10:15:40.482Z,7.95
2022-10-06T10:18:16.886Z,8.60
2022-10-06T10:20:55.864Z,9.07
2022-10-06T10:23:31.802Z,14.98
2022-10-06T10:26:14.119Z,9.13
2022-10-06T10:29:04.315Z,8.60
2022-10-06T10:31:43.660Z,6.17
2022-10-06T10:34:38.318Z,14.25
2022-10-06T10:37:12.308Z,15.73
2022-10-06T10:39:44.758Z,12.40
2022-10-06T10:42:19.939Z,7.70
2022-10-06T10:44:56.401Z,8.80
2022-10-06T10:47:29.429Z,7.22
2022-10-06T10:50:04.424Z,8.98
2022-10-06T10:52:38.324Z,9.07
2022-10-06T10:55:18.675Z,9.68
2022-10-06T10:57:48.983Z,9.97
2022-10-06T11:00:22.862Z,8.18
2022-10-06T11:02:55.081Z,8.93
2022-10-06T11:05:37.008Z,6.68
2022-10-06T11:08:12.606Z,8.55
2022-10-06T11:10:55.001Z,12.10
2022-10-06T11:13:34.555Z,9.02
2022-10-06T11:16:35.404Z,13.05
2022-10-06T11:19:35.121Z,8.05
2022-10-06T11:22:06.875Z,6.35
2022-10-06T11:24:43.865Z,9.33
2022-10-06T11:27:22.916Z,8.23
2022-10-06T11:30:03.068Z,8.13
2022-10-06T11:32:43.063Z,10.05
2022-10-06T11:35:19.573Z,10.95
2022-10-06T11:38:01.122Z,9.27
2022-10-06T11:40:37.960Z,9.23
2022-10-06T11:43:17.138Z,12.02
2022-10-06T11:45:52.444Z,9.90
2022-10-06T11:48:28.225Z,10.68
2022-10-06T11:50:57.121Z,10.43
2022-10-06T11:53:39.642Z,6.57
2022-10-06T11:56:44.949Z,9.10
2022-10-06T11:59:31.463Z,6.55
2022-10-06T12:02:01.386Z,6.95
2022-10-06T12:04:31.352Z,6.87
2022-10-06T12:07:06.583Z,8.40
2022-10-06T12:09:52.452Z,7.20
2022-10-06T12:13:06.610Z,7.63
2022-10-06T12:19:22.405Z,7.10
2022-10-06T12:22:04.794Z,9.27
2022-10-06T12:24:42.519Z,9.32
2022-10-06T12:27:34.813Z,9.40
2022-10-06T12:30:09.262Z,9.52
2022-10-06T12:32:54.015Z,7.20
2022-10-06T12:35:26.489Z,7.93
2022-10-06T12:37:58.656Z,11.05
2022-10-06T12:40:49.381Z,6.65
2022-10-06T12:43:55.771Z,7.75
2022-10-06T12:46:45.939Z,7.33
2022-10-06T12:49:36.945Z,7.22
2022-10-06T12:52:35.094Z,9.10
2022-10-06T12:55:29.073Z,11.13
2022-10-06T12:57:57.489Z,64.63
2022-10-06T13:00:33.180Z,13.83
2022-10-06T13:03:03.363Z,10.30
2022-10-06T13:05:31.919Z,9.88
2022-10-06T13:08:01.952Z,7.25
2022-10-06T13:10:34.711Z,8.63
2022-10-06T13:13:03.266Z,7.07
2022-10-06T13:15:34.674Z,7.32
2022-10-06T13:18:14.397Z,6.80
2022-10-06T13:20:45.375Z,7.57
2022-10-06T13:23:26.438Z,11.25
2022-10-06T13:25:58.901Z,9.03
2022-10-06T13:28:32.718Z,6.97
2022-10-06T13:33:40.243Z,5.85
2022-10-06T13:36:09.647Z,6.13
2022-10-06T13:38:39.234Z,9.87
2022-10-06T13:41:19.357Z,7.15
2022-10-06T13:43:51.094Z,7.32
2022-10-06T13:46:21.815Z,8.35
2022-10-06T13:48:53.812Z,6.65
2022-10-06T13:51:25.694Z,7.67
2022-10-06T13:53:54.418Z,9.73
2022-10-06T13:56:34.193Z,10.70
2022-10-06T13:59:34.112Z,10.45
2022-10-06T14:02:16.471Z,7.35
2022-10-06T14:04:45.177Z,10.80
2022-10-06T14:07:15.381Z,9.63
2022-10-06T14:09:44.198Z,6.93
2022-10-06T14:12:17.111Z,7.10
2022-10-06T14:14:49.803Z,7.68
2022-10-06T14:17:24.255Z,7.93
2022-10-06T14:19:52.868Z,8.10
2022-10-06T14:22:32.575Z,5.05
2022-10-06T14:25:01.310Z,8.48
2022-10-06T14:27:56.561Z,7.50
2022-10-06T14:30:24.753Z,5.03
2022-10-06T14:32:52.957Z,6.10
2022-10-06T14:35:21.227Z,7.47
2022-10-06T14:37:49.633Z,13.20
2022-10-06T14:40:18.208Z,6.70
2022-10-06T14:45:17.543Z,4.97
2022-10-06T14:47:46.644Z,4.68
2022-10-06T14:50:17.861Z,8.18
2022-10-06T14:52:46.846Z,7.30
2022-10-06T14:55:15.117Z,8.73
2022-10-06T14:57:43.548Z,6.28
2022-10-06T15:00:16.898Z,8.75
2022-10-06T15:02:45.470Z,8.73
2022-10-06T15:05:13.789Z,11.55
2022-10-06T15:07:59.729Z,6.03
2022-10-06T15:10:31.281Z,6.95
2022-10-06T15:12:59.861Z,9.40
2022-10-06T15:15:29.326Z,6.68
2022-10-06T15:17:57.773Z,5.97
2022-10-06T15:20:26.923Z,8.97
2022-10-06T15:22:55.395Z,5.85
2022-10-06T15:25:41.546Z,8.57
2022-10-06T15:28:31.181Z,8.05
2022-10-06T15:31:01.686Z,8.23
2022-10-06T15:33:30.964Z,7.23
2022-10-06T15:36:23.399Z,7.05
2022-10-06T15:38:52.266Z,6.78
2022-10-06T15:41:21.065Z,7.30
2022-10-06T15:43:58.725Z,6.72
2022-10-06T15:46:33.173Z,7.43
2022-10-06T15:49:05.225Z,6.75
2022-10-06T15:51:36.613Z,8.43
2022-10-06T15:54:04.907Z,8.52
2022-10-06T15:56:33.836Z,7.03
2022-10-06T15:59:02.578Z,7.70
2022-10-06T16:01:41.892Z,13.27
2022-10-06T16:04:23.287Z,8.15
2022-10-06T16:06:55.446Z,7.10
2022-10-06T16:09:25.567Z,7.65
2022-10-06T16:11:54.833Z,7.37
2022-10-06T16:14:24.628Z,7.85
2022-10-06T16:16:59.847Z,8.63
2022-10-06T16:19:29.177Z,7.78
2022-10-06T16:21:59.098Z,6.57
2022-10-06T16:24:27.912Z,6.77
2022-10-06T16:26:59.870Z,6.25
2022-10-06T16:29:29.314Z,12.10
2022-10-06T16:31:59.241Z,6.10
2022-10-06T16:34:27.512Z,6.68
2022-10-06T16:36:55.552Z,9.63
2022-10-06T16:39:24.767Z,6.38
2022-10-06T16:41:54.045Z,8.32
2022-10-06T16:44:22.167Z,8.55
2022-10-06T16:46:50.294Z,6.97
2022-10-06T16:49:19.838Z,7.43
2022-10-06T16:51:50.349Z,8.35
2022-10-06T16:54:18.822Z,7.75
2022-10-06T16:56:49.008Z,7.70
2022-10-06T16:59:18.720Z,7.18
2022-10-06T17:01:48.284Z,7.33
2022-10-06T17:04:19.545Z,7.72
2022-10-06T17:06:50.097Z,8.23
2022-10-06T17:09:19.703Z,8.20
2022-10-06T17:11:49.353Z,9.13
2022-10-06T17:14:17.907Z,7.37
2022-10-06T17:16:47.788Z,12.13
2022-10-06T17:19:18.221Z,11.23
2022-10-06T17:21:59.085Z,8.57
2022-10-06T17:24:29.182Z,10.50
2022-10-06T17:26:58.406Z,8.07
2022-10-06T17:29:27.269Z,11.38
2022-10-06T17:32:00.285Z,12.23
2022-10-06T17:34:32.896Z,12.27
2022-10-06T17:37:08.105Z,12.73
2022-10-06T17:39:36.522Z,14.53
2022-10-06T17:42:05.200Z,10.65
2022-10-06T17:44:34.999Z,13.48
2022-10-06T17:47:03.188Z,10.82
2022-10-06T17:49:37.555Z,13.50
2022-10-06T17:52:10.276Z,12.77
2022-10-06T17:54:38.872Z,13.90
2022-10-06T17:57:07.167Z,16.33
2022-10-06T17:59:38.195Z,16.23
2022-10-06T18:02:07.265Z,12.48
2022-10-06T18:04:36.469Z,16.30
2022-10-06T18:07:12.164Z,11.30
2022-10-06T18:10:01.477Z,10.15
2022-10-06T18:12:38.503Z,15.35
2022-10-06T18:15:12.338Z,15.07
2022-10-06T18:17:41.449Z,10.47
2022-10-06T18:20:10.179Z,12.55
2022-10-06T18:22:40.231Z,14.27
2022-10-06T18:25:09.838Z,15.48
2022-10-06T18:27:40.155Z,13.00
2022-10-06T18:30:10.934Z,14.50
2022-10-06T18:38:16.835Z,15.38
2022-10-06T18:40:45.244Z,15.13
2022-10-06T18:43:16.220Z,11.90
2022-10-06T18:46:02.099Z,14.45
2022-10-06T18:48:47.517Z,12.55
2022-10-06T18:51:16.093Z,10.77
2022-10-06T18:53:45.807Z,11.93
2022-10-06T18:56:16.999Z,10.53
2022-10-06T18:58:45.642Z,11.48
2022-10-06T19:01:14.820Z,9.60
2022-10-06T19:03:46.009Z,10.93
2022-10-06T19:06:14.301Z,12.10
2022-10-06T19:08:42.735Z,12.07
2022-10-06T19:11:36.901Z,12.38
2022-10-06T19:14:08.190Z,10.15
2022-10-06T19:16:37.004Z,9.77
2022-10-06T19:19:10.655Z,10.25
2022-10-06T19:21:40.781Z,13.63
2022-10-06T19:24:11.747Z,9.88
2022-10-06T19:26:55.240Z,11.90
2022-10-06T19:29:26.988Z,10.95
2022-10-06T19:32:01.760Z,11.35
2022-10-06T19:34:36.369Z,15.13
2022-10-06T19:37:06.158Z,12.95
2022-10-06T19:39:42.606Z,11.27
2022-10-06T19:42:33.269Z,15.30
2022-10-06T19:45:06.135Z,11.50
2022-10-06T19:47:37.346Z,15.67
2022-10-06T19:50:12.131Z,13.70
2022-10-06T19:52:42.564Z,12.38
2022-10-06T19:55:22.933Z,13.25
2022-10-06T19:57:55.691Z,11.23
2022-10-06T20:00:24.365Z,15.07
2022-10-06T20:02:59.921Z,11.07
2022-10-06T20:05:29.492Z,14.57
2022-10-06T20:07:58.591Z,13.40
2022-10-06T20:10:31.910Z,13.70
2022-10-06T20:13:01.740Z,11.20
2022-10-06T20:18:16.027Z,10.57
2022-10-06T20:20:46.250Z,13.50
2022-10-06T20:23:15.549Z,13.73
2022-10-06T20:25:44.150Z,40.50
2022-10-06T20:28:14.216Z,49.60
2022-10-06T20:30:49.715Z,52.00
2022-10-06T20:33:18.971Z,25.75
2022-10-06T20:35:49.338Z,33.10
2022-10-06T20:38:37.852Z,38.77
2022-10-06T20:41:05.257Z,34.75
2022-10-06T20:43:35.552Z,46.25
2022-10-06T20:46:04.010Z,17.88
2022-10-06T20:48:35.200Z,64.63
2022-10-06T20:51:03.628Z,48.07
2022-10-06T20:53:32.165Z,56.97
2022-10-06T20:56:00.358Z,25.02
2022-10-06T20:58:28.881Z,58.65
2022-10-06T21:01:05.387Z,27.25
2022-10-06T21:03:34.838Z,21.60
2022-10-06T21:06:03.804Z,72.97
2022-10-06T21:08:32.929Z,23.13
2022-10-06T21:11:02.715Z,13.90
2022-10-06T21:13:32.504Z,23.20
2022-10-06T21:16:02.215Z,16.83
2022-10-06T21:18:34.390Z,12.23
2022-10-06T21:21:05.355Z,62.55
2022-10-06T21:23:39.288Z,77.18
2022-10-06T21:26:09.053Z,24.42
2022-10-06T21:28:40.965Z,26.17
2022-10-06T21:31:18.414Z,13.93
2022-10-06T21:33:50.655Z,42.08
2022-10-06T21:36:43.068Z,47.05
2022-10-06T21:39:22.053Z,17.17
2022-10-06T21:41:50.573Z,23.30
2022-10-06T21:44:23.237Z,15.35
2022-10-06T21:46:54.131Z,12.23
2022-10-06T21:49:28.370Z,12.07
2022-10-06T21:51:58.477Z,14.68
2022-10-06T21:54:27.254Z,12.53
2022-10-06T21:56:55.967Z,12.23
2022-10-06T21:59:25.992Z,12.88
2022-10-06T22:01:58.499Z,13.45
2022-10-06T22:04:27.142Z,13.57
2022-10-06T22:06:55.691Z,14.80
2022-10-06T22:09:24.381Z,17.00
2022-10-06T22:11:55.756Z,12.93
2022-10-06T22:14:24.954Z,14.95
2022-10-06T22:16:56.895Z,11.18
2022-10-06T22:19:29.208Z,12.07
2022-10-06T22:21:57.720Z,15.05
2022-10-06T22:24:26.298Z,12.48
2022-10-06T22:26:58.914Z,10.43
2022-10-06T22:29:29.793Z,11.15
2022-10-06T22:31:58.898Z,12.20
2022-10-06T22:34:28.879Z,11.88
2022-10-06T22:36:57.480Z,14.73
2022-10-06T22:39:25.763Z,13.95
2022-10-06T22:41:54.318Z,13.10
2022-10-06T22:44:22.887Z,11.23
2022-10-06T22:47:00.072Z,13.85
2022-10-06T22:49:29.680Z,13.90
2022-10-06T22:52:05.472Z,10.82
2022-10-06T22:54:57.933Z,11.55
2022-10-06T22:57:28.776Z,13.40
2022-10-06T22:59:56.993Z,12.98
2022-10-06T23:02:27.888Z,13.55
2022-10-06T23:04:57.453Z,12.50
2022-10-06T23:07:31.464Z,13.60
2022-10-06T23:10:00.085Z,16.13
2022-10-06T23:12:29.966Z,12.88
2022-10-06T23:15:01.069Z,10.65
2022-10-06T23:17:29.646Z,10.40
2022-10-06T23:19:59.260Z,10.85
2022-10-06T23:22:29.273Z,11.13
2022-10-06T23:25:00.349Z,11.27
2022-10-06T23:27:28.984Z,11.07
2022-10-06T23:29:57.618Z,13.68
2022-10-06T23:32:26.341Z,12.50
2022-10-06T23:34:54.917Z,9.77
2022-10-06T23:37:24.529Z,8.45
2022-10-06T23:39:53.038Z,11.23
2022-10-06T23:42:21.312Z,13.93
2022-10-06T23:44:49.829Z,9.52
2022-10-06T23:47:18.329Z,11.30
2022-10-06T23:49:46.677Z,10.30
2022-10-06T23:52:15.406Z,10.68
2022-10-06T23:54:45.015Z,11.50
2022-10-06T23:57:13.673Z,12.45
2022-10-06T23:59:41.868Z,9.50
